Flugplatz Hildesheim

Für EDVM sind keine METAR/TAF Berichte vorhanden.
Es werden die Flugwettermeldungen vom Flugplatz Hannover in 35 km Entfernung angezeigt.

Bericht für EDDV

vom 30.09. um 22:20 UTC

Wind 8 kt aus 180°

Sichtweite 10 km oder mehr

gute Sicht, keine Wolken < 5000 ft, keine CB, keine Wettererscheinungen (CAVOK)

Temperatur 11.0°C

Taupunkt 6.0°C

Luftfeuchtigkeit 71%

Luftdruck 1008 hPa

EDDV 302220Z AUTO 18008KT 150V210 CAVOK 11/06 Q1008

Prognose für EDDV

vom 30.09. um 17:00 UTC

Am 30.09. zwischen 18:00 UTC und 01:00 UTC

Wind 7 kt aus 200°

Sichtweite 10 km oder mehr

keine signifikanten Wettererscheinungen

keine Wolken


Zwischen 01:00 und 03:00 UTC übergehend zu

Wind 12 kt aus 180°

Sichtweite 10 km oder mehr

keine signifikanten Wettererscheinungen

keine Wolken


Zwischen 03:00 UTC und 09:00 UTC zeitweise

Wind 15 kt aus 190° in Böen 30 kt


Zwischen 04:00 UTC und 07:00 UTC zeitweise mit einer Wahrscheinlichkeit von 30%

Wind 20 kt aus 200° in Böen 40 kt

Sichtweite 4500 m

Regen

aufgebrochene Bewölkung in 1100 ft


Zwischen 09:00 und 11:00 UTC übergehend zu

Wind 10 kt aus 260°

Sichtweite 10 km oder mehr

keine signifikanten Wettererscheinungen

keine Wolken

TAF EDDV 301700Z 3018/0118 20007KT CAVOK BECMG 0101/0103 18012KT TEMPO 0103/0109 19015G30KT PROB30 TEMPO 0104/0107 20020G40KT 4500 RA BKN011 BECMG 0109/0111 26010KT
Impressum